首页
METAR-TAF:

METAR-TAF

机场 :

紋別機場

紋別, 日本

纬度: 44-15N, 经度: 143-32E, 海拔: 6米

当前天气观测

该预报发布于17小时和5分钟前的07:00 UTC
风速3节,风向北转西北
温度 -3°C
湿度 93%
气压 1015 hPa
能見度: 1600
小阵雪

METAR: RJEB 120700Z 33003KT 1600 R32/1500VP2000N -SHSN VV004 M03/M04 Q1015

时间: 09:05 (00:05 UTC)


TAF: 丢失

超过4000个机场的气象观测和天气预报(METAR&TAF报告)。

可查询的气象台以黄色和红色小点在地图上表示。

将鼠标移到小点上方,可查看气象台名称。

然后点击查看天气观测和预报。

如需切换地图:点击带黑十字的绿色按钮放大地图;点击带横线的绿色按钮缩小地图;或者点击绿色箭头查看邻近地区的地图。


METAR-TAF: